Time;durP1;ratioP1;P1;durP2;ratioP2;P2;SDS_P1;SDS_P2;PMS_P1;PMS_P2;Temp;Humidity;BMP_temperature;BMP_pressure;BME280_temperature;BME280_humidity;BME280_pressure;Samples;Min_cycle;Max_cycle;Signal;HPM_P1;HPM_P2
2022/01/07 00:01:51;;;;;;;30.58;11.70;;;0.10;99.90;;;-1.12;100.00;97879.03;4989610;28;20570;-70
2022/01/07 00:04:19;;;;;;;30.73;11.82;;;0.10;99.90;;;-1.13;100.00;97873.91;4972993;28;20050;-70
2022/01/07 00:06:46;;;;;;;32.00;11.20;;;0.10;99.90;;;-1.07;100.00;97876.50;4976987;28;20144;-70
2022/01/07 00:09:14;;;;;;;41.88;16.58;;;0.10;99.90;;;-1.07;100.00;97868.88;4977532;28;20487;-70
2022/01/07 00:11:43;;;;;;;36.38;14.05;;;0.10;99.90;;;-1.18;100.00;97866.22;4973854;28;20266;-70
2022/01/07 00:14:11;;;;;;;28.25;12.77;;;0.10;99.90;;;-1.10;100.00;97866.28;4975714;28;20085;-70
2022/01/07 00:16:41;;;;;;;36.83;11.57;;;0.20;99.90;;;-1.10;100.00;97868.81;4968326;28;20486;-70
2022/01/07 00:19:12;;;;;;;27.23;11.18;;;0.20;99.90;;;-1.06;100.00;97875.66;4975302;28;20054;-70
2022/01/07 00:21:39;;;;;;;29.73;12.90;;;0.20;99.90;;;-1.11;100.00;97870.53;4972359;28;20555;-70
2022/01/07 00:24:07;;;;;;;40.08;14.70;;;0.20;99.90;;;-1.13;100.00;97874.75;4992563;28;20051;-70
2022/01/07 00:26:35;;;;;;;27.08;11.15;;;0.20;99.90;;;-1.07;100.00;97863.78;4972075;28;20059;-70
2022/01/07 00:29:03;;;;;;;36.85;13.55;;;0.20;99.90;;;-1.07;100.00;97858.69;4978906;28;20073;-70
2022/01/07 00:31:31;;;;;;;37.03;13.32;;;0.20;99.90;;;-1.09;100.00;97862.91;4992066;28;20066;-70
2022/01/07 00:33:59;;;;;;;34.33;14.88;;;0.30;99.90;;;-1.16;100.00;97858.59;4976960;28;20496;-70
2022/01/07 00:36:27;;;;;;;34.28;14.05;;;0.40;99.90;;;-1.11;100.00;97855.22;4980948;28;20050;-70
2022/01/07 00:38:55;;;;;;;38.92;14.90;;;0.40;99.90;;;-1.14;100.00;97857.78;4976226;28;20043;-70
2022/01/07 00:41:22;;;;;;;37.38;13.48;;;0.40;99.90;;;-1.13;100.00;97856.06;4976074;28;20043;-70
2022/01/07 00:43:50;;;;;;;31.40;13.75;;;0.40;99.90;;;-1.10;100.00;97853.53;4975619;28;20416;-70
2022/01/07 00:46:20;;;;;;;23.98;11.63;;;0.40;99.90;;;-0.95;100.00;97850.28;4981756;28;20238;-70
2022/01/07 00:48:48;;;;;;;25.55;11.20;;;0.40;99.90;;;-0.94;100.00;97846.88;4973941;28;20050;-70
2022/01/07 00:51:15;;;;;;;32.35;13.07;;;0.40;99.90;;;-1.00;100.00;97860.44;4980741;28;20112;-69
2022/01/07 00:53:44;;;;;;;36.25;12.43;;;0.40;99.90;;;-0.96;100.00;97846.00;4975382;28;20058;-69
2022/01/07 00:56:13;;;;;;;35.72;11.82;;;0.40;99.90;;;-0.99;100.00;97848.53;4977761;28;20050;-69
2022/01/07 00:58:40;;;;;;;28.05;11.65;;;0.50;99.90;;;-0.96;100.00;97840.91;4991710;28;20409;-69
2022/01/07 01:01:08;;;;;;;32.10;11.43;;;0.50;99.90;;;-1.01;100.00;97840.03;4973095;28;20495;-69
2022/01/07 01:03:36;;;;;;;30.90;10.68;;;0.40;99.90;;;-0.95;100.00;97837.53;4978403;28;20491;-69
2022/01/07 01:06:03;;;;;;;26.55;11.77;;;0.40;99.90;;;-0.98;100.00;97847.69;4974440;28;20089;-69
2022/01/07 01:08:30;;;;;;;30.55;12.43;;;0.40;99.90;;;-1.10;100.00;97846.75;4981090;28;20054;-69
2022/01/07 01:10:58;;;;;;;35.60;13.25;;;0.40;99.90;;;-1.02;100.00;97844.28;4973398;28;20387;-69
2022/01/07 01:13:31;;;;;;;30.45;10.43;;;0.50;99.90;;;-0.89;100.00;97840.97;4978609;28;20066;-69
2022/01/07 01:15:58;;;;;;;;;;;0.40;99.90;;;-0.97;100.00;97839.22;4975293;28;20337;-69
2022/01/07 01:18:26;;;;;;;32.67;11.95;;;0.30;99.90;;;-1.05;100.00;97839.13;4975935;28;19932;-69
2022/01/07 01:20:54;;;;;;;38.75;13.07;;;0.30;99.90;;;-1.11;100.00;97836.56;4977261;28;20078;-69
2022/01/07 01:23:21;;;;;;;29.45;11.95;;;0.30;99.90;;;-0.99;100.00;97836.63;4972995;28;20055;-69
2022/01/07 01:25:54;;;;;;;32.35;13.05;;;0.40;99.90;;;-1.01;100.00;97837.47;4981980;28;20066;-69
2022/01/07 01:28:21;;;;;;;;;;;0.30;99.90;;;-0.96;100.00;97829.00;4982059;28;20149;-69
2022/01/07 01:30:49;;;;;;;30.15;12.55;;;0.30;99.90;;;-0.92;100.00;97827.34;4978859;28;19922;-69
2022/01/07 01:33:18;;;;;;;24.77;10.93;;;0.30;99.90;;;-0.92;100.00;97825.66;4974942;28;20093;-69
2022/01/07 01:35:45;;;;;;;29.63;13.00;;;0.30;99.90;;;-0.98;100.00;97819.66;4979910;28;20042;-69
2022/01/07 01:38:16;;;;;;;32.25;12.18;;;0.30;99.90;;;-0.99;100.00;97818.81;4979792;28;20153;-69
2022/01/07 01:40:47;;;;;;;29.92;12.82;;;0.30;99.90;;;-0.99;100.00;97817.97;4977355;28;20418;-69
2022/01/07 01:43:15;;;;;;;28.40;11.88;;;0.30;99.90;;;-1.00;100.00;97812.00;4978907;28;20452;-69
2022/01/07 01:45:44;;;;;;;38.30;12.70;;;0.30;99.90;;;-0.95;100.00;97801.84;4980452;28;20114;-69
2022/01/07 01:48:12;;;;;;;30.95;12.32;;;0.30;99.90;;;-1.06;100.00;97792.44;4975377;28;20077;-69
2022/01/07 01:50:40;;;;;;;22.85;10.70;;;0.30;99.90;;;-1.06;100.00;97789.03;4970784;28;20054;-69
2022/01/07 01:53:10;;;;;;;31.58;12.68;;;0.30;99.90;;;-1.07;100.00;97789.88;4991995;28;20104;-69
2022/01/07 01:55:38;;;;;;;33.10;12.60;;;0.30;99.90;;;-1.09;100.00;97791.56;4971923;28;20127;-69
2022/01/07 01:58:05;;;;;;;27.77;12.68;;;0.30;99.90;;;-1.08;100.00;97780.53;4978803;28;20105;-69
2022/01/07 02:00:33;;;;;;;29.20;11.52;;;0.30;99.90;;;-1.03;100.00;97785.66;4973493;28;20051;-69
2022/01/07 02:03:02;;;;;;;28.33;11.18;;;0.20;99.90;;;-1.07;100.00;97785.63;4975140;28;20070;-69
2022/01/07 02:05:29;;;;;;;32.45;10.55;;;0.30;99.90;;;-1.13;100.00;97793.22;4994621;28;20109;-69
2022/01/07 02:07:57;;;;;;;32.83;10.73;;;0.30;99.90;;;-0.94;100.00;97790.81;4974004;28;20054;-70
2022/01/07 02:10:25;;;;;;;24.35;10.63;;;0.30;99.90;;;-1.00;100.00;97783.13;4977955;28;20105;-69
2022/01/07 02:12:53;;;;;;;27.70;11.00;;;0.20;99.90;;;-0.96;100.00;97782.28;4982247;28;20395;-69
2022/01/07 02:15:20;;;;;;;26.17;12.20;;;0.20;99.90;;;-1.15;100.00;97783.88;4979169;28;20527;-69
2022/01/07 02:17:49;;;;;;;27.42;9.60;;;0.30;99.90;;;-1.13;100.00;97775.41;4973503;28;20047;-69
2022/01/07 02:20:20;;;;;;;29.70;11.88;;;0.20;99.90;;;-1.11;100.00;97771.16;4979056;28;20129;-69
2022/01/07 02:22:48;;;;;;;29.08;12.07;;;0.20;99.90;;;-1.19;100.00;97762.63;4973238;28;20181;-69
2022/01/07 02:25:16;;;;;;;27.75;11.25;;;0.30;99.90;;;-1.13;100.00;97764.38;4975894;28;20571;-69
2022/01/07 02:27:47;;;;;;;21.67;9.63;;;0.30;99.90;;;-1.11;100.00;97763.53;4974892;28;20065;-69
2022/01/07 02:30:27;;;;;;;23.35;10.05;;;0.30;99.90;;;-0.94;100.00;97757.69;4972680;28;20070;-69
2022/01/07 02:33:03;;;;;;;23.25;10.00;;;0.30;99.90;;;-0.96;100.00;97759.38;4976212;28;20121;-69
2022/01/07 02:35:34;;;;;;;26.92;11.68;;;0.30;99.90;;;-0.91;100.00;97750.06;4983472;28;20184;-69
2022/01/07 02:38:02;;;;;;;28.00;11.38;;;0.30;99.90;;;-0.95;100.00;97753.44;4980795;28;20077;-69
2022/01/07 02:40:30;;;;;;;28.83;11.10;;;0.30;99.90;;;-0.97;100.00;97761.06;4971872;28;20126;-69
2022/01/07 02:42:58;;;;;;;23.85;9.98;;;0.30;99.90;;;-0.94;100.00;97752.59;4979957;28;20070;-69
2022/01/07 02:45:28;;;;;;;29.73;11.57;;;0.30;99.90;;;-0.98;100.00;97745.75;4973486;28;20105;-69
2022/01/07 02:47:57;;;;;;;28.67;10.63;;;0.30;99.90;;;-0.99;100.00;97746.63;4978175;28;20129;-69
2022/01/07 02:50:30;;;;;;;25.08;10.50;;;0.30;99.90;;;-1.00;100.00;97744.91;4972350;28;20074;-69
2022/01/07 02:53:09;;;;;;;30.00;10.43;;;0.30;99.90;;;-0.99;100.00;97741.53;4978838;28;20069;-69
2022/01/07 02:55:38;;;;;;;29.05;10.13;;;0.20;99.90;;;-0.98;100.00;97735.56;4992217;28;20047;-69
2022/01/07 02:58:07;;;;;;;27.80;10.13;;;0.20;99.90;;;-1.06;100.00;97738.09;4975321;28;20043;-71
2022/01/07 03:00:40;;;;;;;20.67;9.38;;;0.20;99.90;;;-1.09;100.00;97744.00;4971132;28;20051;-70
2022/01/07 03:03:08;;;;;;;25.95;9.57;;;0.20;99.90;;;-1.08;100.00;97738.06;4974194;28;20415;-71
2022/01/07 03:05:39;;;;;;;29.50;10.43;;;0.20;99.90;;;-1.19;100.00;97742.25;4975612;28;20129;-71
2022/01/07 03:08:06;;;;;;;28.27;10.55;;;0.20;99.90;;;-1.13;100.00;97737.19;4986452;28;20506;-71
2022/01/07 03:10:33;;;;;;;29.50;11.32;;;0.20;99.90;;;-1.08;100.00;97737.22;4977013;28;20062;-71
2022/01/07 03:13:05;;;;;;;29.77;10.52;;;0.20;99.90;;;-1.02;100.00;97737.25;4972969;28;20105;-71
2022/01/07 03:15:35;;;;;;;26.73;9.88;;;0.20;99.90;;;-1.04;100.00;97738.09;4975474;28;20498;-71
2022/01/07 03:18:07;;;;;;;22.88;11.45;;;0.30;99.90;;;-1.03;100.00;97724.50;4970053;28;20053;-70
2022/01/07 03:20:38;;;;;;;28.77;11.20;;;0.20;99.90;;;-1.07;100.00;97726.19;4975119;28;20467;-70
2022/01/07 03:23:12;;;;;;;21.60;10.73;;;0.30;99.90;;;-1.00;100.00;97724.50;4974614;28;20130;-71
2022/01/07 03:25:44;;;;;;;22.38;10.82;;;0.30;99.90;;;-0.99;100.00;97716.88;4972407;28;20117;-71
2022/01/07 03:28:12;;;;;;;28.60;9.73;;;0.30;99.90;;;-1.08;100.00;97715.13;4974107;28;20183;-70
2022/01/07 03:30:40;;;;;;;27.45;10.98;;;0.30;99.90;;;-0.94;100.00;97714.38;4972189;28;20038;-71
2022/01/07 03:33:08;;;;;;;26.42;10.32;;;0.30;99.90;;;-1.00;100.00;97710.09;4974414;28;20133;-71
2022/01/07 03:35:35;;;;;;;27.83;10.43;;;0.30;99.90;;;-1.04;100.00;97708.38;4985872;28;20039;-71
2022/01/07 03:38:03;;;;;;;30.45;11.25;;;0.40;99.90;;;-1.07;100.00;97705.81;4975804;28;20042;-70
2022/01/07 03:40:33;;;;;;;25.90;10.25;;;0.40;99.90;;;-0.94;100.00;97706.72;4969564;28;20046;-71
2022/01/07 03:43:01;;;;;;;21.83;8.77;;;0.40;99.90;;;-0.95;100.00;97705.03;4975803;28;20050;-71
2022/01/07 03:45:29;;;;;;;27.10;10.20;;;0.30;99.90;;;-0.97;100.00;97710.09;4971292;28;20066;-71
2022/01/07 03:47:56;;;;;;;24.98;10.73;;;0.30;99.90;;;-0.96;100.00;97704.16;4975367;28;20065;-71
2022/01/07 03:50:27;;;;;;;21.65;10.73;;;0.30;99.90;;;-1.12;100.00;97702.38;4971013;28;20141;-71
2022/01/07 03:52:57;;;;;;;22.55;9.63;;;0.40;99.90;;;-0.98;100.00;97699.91;4993746;28;20133;-71
2022/01/07 03:55:32;;;;;;;26.15;10.27;;;0.40;99.90;;;-0.98;100.00;97697.34;4975455;28;20052;-70
2022/01/07 03:58:01;;;;;;;27.30;10.55;;;0.40;99.90;;;-0.95;100.00;97694.84;4972978;28;20053;-71
2022/01/07 04:00:38;;;;;;;18.95;8.02;;;0.40;99.90;;;-0.90;100.00;97691.44;4992283;28;20125;-73
2022/01/07 04:03:13;;;;;;;24.27;9.82;;;0.40;99.90;;;-0.92;100.00;97687.19;4973622;28;20439;-71
2022/01/07 04:05:41;;;;;;;20.58;8.95;;;0.40;99.90;;;-0.89;100.00;97690.63;4979863;28;20051;-71
2022/01/07 04:08:09;;;;;;;18.70;8.07;;;0.50;99.90;;;-0.94;100.00;97684.63;4974680;28;20203;-70
2022/01/07 04:10:37;;;;;;;21.42;9.20;;;0.50;99.90;;;-0.95;100.00;97682.09;4977527;28;20102;-71
2022/01/07 04:13:14;;;;;;;19.67;8.13;;;0.60;99.90;;;-0.82;100.00;97688.09;4976499;28;20047;-71
2022/01/07 04:15:41;;;;;;;25.70;9.25;;;0.50;99.90;;;-0.88;100.00;97684.66;4993072;28;20573;-70
2022/01/07 04:18:09;;;;;;;17.77;7.68;;;0.50;99.90;;;-0.95;100.00;97677.00;4979083;28;20364;-71
2022/01/07 04:20:37;;;;;;;21.15;8.50;;;0.60;99.90;;;-0.95;100.00;97698.22;4983219;28;20039;-70
2022/01/07 04:23:07;;;;;;;22.23;8.15;;;0.60;99.90;;;-0.93;100.00;97672.78;4977981;28;20047;-71
2022/01/07 04:25:35;;;;;;;19.55;8.00;;;0.70;99.90;;;-0.86;100.00;97672.78;4979510;28;20050;-68
2022/01/07 04:28:07;;;;;;;17.77;8.32;;;0.60;99.90;;;-0.78;100.00;97677.06;4979769;28;20082;-71
2022/01/07 04:30:40;;;;;;;15.20;6.88;;;0.60;99.90;;;-0.75;100.00;97667.75;4978187;28;20130;-71
2022/01/07 04:33:12;;;;;;;17.67;7.07;;;0.60;99.90;;;-0.90;100.00;97676.16;4982707;28;20082;-71
2022/01/07 04:35:46;;;;;;;20.52;6.50;;;0.60;99.90;;;-0.81;100.00;97667.72;4990693;28;20051;-71
2022/01/07 04:38:17;;;;;;;19.85;7.82;;;0.60;99.90;;;-0.82;100.00;97662.59;4980217;28;20154;-71
2022/01/07 04:40:44;;;;;;;19.83;7.47;;;0.60;99.90;;;-0.83;100.00;97664.31;4975898;28;20464;-71
2022/01/07 04:43:12;;;;;;;22.33;7.82;;;0.70;99.90;;;-0.77;100.00;97658.41;4979954;28;20128;-71
2022/01/07 04:45:40;;;;;;;15.57;7.03;;;0.60;99.90;;;-0.76;100.00;97658.38;4979206;28;20418;-71
2022/01/07 04:48:08;;;;;;;23.27;8.68;;;0.70;99.90;;;-0.83;100.00;97659.22;4982298;28;20042;-71
2022/01/07 04:50:37;;;;;;;18.77;8.07;;;0.70;99.90;;;-0.78;100.00;97656.69;4962129;28;20392;-71
2022/01/07 04:53:05;;;;;;;19.00;7.05;;;0.70;99.90;;;-0.75;100.00;97652.44;4958235;28;20042;-71
2022/01/07 04:55:37;;;;;;;22.83;7.05;;;0.70;99.90;;;-0.79;100.00;97649.88;4979274;28;20055;-71
2022/01/07 04:58:17;;;;;;;20.10;7.05;;;0.70;99.90;;;-0.72;100.00;97639.72;4961192;28;20527;-71
2022/01/07 05:00:45;;;;;;;17.25;6.82;;;0.60;99.90;;;-0.80;100.00;97646.47;4979242;28;20043;-71
2022/01/07 05:03:13;;;;;;;21.17;5.75;;;0.70;99.90;;;-0.70;100.00;97645.66;4976458;28;20168;-71
2022/01/07 05:05:44;;;;;;;15.65;5.75;;;0.70;99.90;;;-0.68;100.00;97643.13;4989757;28;20042;-70
2022/01/07 05:08:16;;;;;;;16.50;6.30;;;0.70;99.90;;;-0.74;100.00;97655.84;4974600;28;20150;-71
2022/01/07 05:10:43;;;;;;;18.23;7.60;;;0.70;99.90;;;-0.69;100.00;97628.66;4976970;28;20125;-71
2022/01/07 05:13:10;;;;;;;13.32;6.32;;;0.80;99.90;;;-0.65;100.00;97633.78;4974354;28;20089;-71
2022/01/07 05:15:38;;;;;;;20.77;6.97;;;0.80;99.90;;;-0.70;100.00;97648.22;4978918;28;20123;-71
2022/01/07 05:18:05;;;;;;;15.68;6.70;;;0.80;99.90;;;-0.67;100.00;97637.16;4979413;28;20051;-71
2022/01/07 05:20:37;;;;;;;18.42;6.93;;;0.80;99.90;;;-0.72;100.00;97641.41;4978060;28;20046;-71
2022/01/07 05:23:04;;;;;;;19.70;5.82;;;0.80;99.90;;;-0.70;100.00;97643.13;4980278;28;20042;-70
2022/01/07 05:25:34;;;;;;;15.32;6.03;;;0.80;99.90;;;-0.59;100.00;97637.19;4982089;28;20190;-69
2022/01/07 05:28:01;;;;;;;24.20;6.75;;;0.90;99.90;;;-0.67;100.00;97643.13;4977245;28;20328;-70
2022/01/07 05:30:31;;;;;;;17.02;6.15;;;0.90;99.90;;;-0.66;100.00;97649.09;4975893;28;20086;-71
2022/01/07 05:32:59;;;;;;;16.23;5.38;;;0.80;99.90;;;-0.63;100.00;97634.63;4975643;28;20042;-71
2022/01/07 05:35:29;;;;;;;14.65;5.90;;;0.80;99.90;;;-0.56;100.00;97643.16;4977664;28;20050;-70
2022/01/07 05:37:56;;;;;;;18.45;6.65;;;0.80;99.90;;;-0.61;100.00;97634.66;4972934;28;20093;-70
2022/01/07 05:40:24;;;;;;;14.75;6.45;;;0.80;99.90;;;-0.61;100.00;97638.91;4974888;28;20050;-70
2022/01/07 05:42:51;;;;;;;19.52;7.18;;;0.80;99.90;;;-0.52;100.00;97624.47;4981943;28;20047;-71
2022/01/07 05:45:19;;;;;;;21.10;7.07;;;0.70;99.90;;;-0.55;100.00;97623.59;4984282;28;20093;-70
2022/01/07 05:47:46;;;;;;;26.50;8.73;;;0.70;99.90;;;-0.68;100.00;97636.31;4992246;28;20058;-68
2022/01/07 05:50:16;;;;;;;25.67;8.70;;;0.80;99.90;;;-0.64;100.00;97621.88;4980389;28;20133;-70
2022/01/07 05:52:43;;;;;;;20.73;7.47;;;0.90;99.90;;;-0.56;100.00;97619.34;4975450;28;20088;-70
2022/01/07 05:55:11;;;;;;;18.52;7.85;;;0.80;99.90;;;-0.59;100.00;97627.84;4975002;28;20058;-70
2022/01/07 05:57:38;;;;;;;16.83;6.40;;;0.90;99.90;;;-0.60;100.00;97604.91;4974930;28;20089;-70
2022/01/07 06:00:09;;;;;;;17.88;8.13;;;0.90;99.90;;;-0.64;100.00;97627.84;4966590;28;20074;-70
2022/01/07 06:02:36;;;;;;;10.70;4.68;;;0.90;99.90;;;-0.63;100.00;97626.97;4991322;28;20047;-70
2022/01/07 06:05:05;;;;;;;16.92;5.63;;;0.90;99.90;;;-0.64;100.00;97614.22;4976025;28;20046;-70
2022/01/07 06:07:33;;;;;;;21.98;6.00;;;0.90;99.90;;;-0.57;100.00;97597.25;4976215;28;20065;-70
2022/01/07 06:10:00;;;;;;;13.75;6.32;;;0.90;99.90;;;-0.58;100.00;97615.94;4989656;28;20058;-70
2022/01/07 06:12:27;;;;;;;14.82;5.60;;;0.90;99.90;;;-0.56;100.00;97607.47;4977388;28;20414;-70
2022/01/07 06:14:55;;;;;;;19.48;6.38;;;0.90;99.90;;;-0.54;100.00;97610.03;4978036;28;20465;-70
2022/01/07 06:17:23;;;;;;;12.20;4.55;;;0.90;99.90;;;-0.56;100.00;97604.06;4976463;28;20057;-70
2022/01/07 06:19:50;;;;;;;12.95;5.55;;;0.90;99.90;;;-0.45;100.00;97590.47;4971774;28;20503;-70
2022/01/07 06:22:19;;;;;;;13.20;4.75;;;0.90;99.90;;;-0.49;100.00;97609.16;4975443;28;20489;-70
2022/01/07 06:24:46;;;;;;;11.65;4.55;;;0.90;99.90;;;-0.40;100.00;97599.84;4979757;28;20416;-70
2022/01/07 06:27:14;;;;;;;12.48;5.00;;;0.80;99.90;;;-0.54;100.00;97587.91;4974797;28;20092;-71
2022/01/07 06:29:44;;;;;;;13.48;4.75;;;0.90;99.90;;;-0.44;100.00;97587.06;4981944;28;20430;-70
2022/01/07 06:32:12;;;;;;;18.98;6.28;;;0.90;99.90;;;-0.39;100.00;97581.97;4972210;28;20059;-70
2022/01/07 06:34:40;;;;;;;14.38;5.32;;;0.90;99.90;;;-0.39;100.00;97591.31;4974788;28;20058;-70
2022/01/07 06:37:07;;;;;;;18.02;5.05;;;0.90;99.90;;;-0.43;100.00;97595.59;4972469;28;20055;-70
2022/01/07 06:39:35;;;;;;;16.70;6.68;;;0.90;99.90;;;-0.43;100.00;97586.22;4976317;28;20078;-70
2022/01/07 06:42:03;;;;;;;16.77;5.95;;;1.00;99.90;;;-0.53;100.00;97589.59;4977487;28;20053;-71
2022/01/07 06:44:30;;;;;;;17.15;6.03;;;1.00;99.90;;;-0.56;100.00;97598.97;4990847;28;20074;-70
2022/01/07 06:46:58;;;;;;;12.50;5.05;;;1.10;99.90;;;-0.45;100.00;97597.28;4977937;28;20573;-71
2022/01/07 06:49:25;;;;;;;19.02;5.47;;;1.00;99.90;;;-0.53;100.00;97593.84;4972258;28;20098;-70
2022/01/07 06:51:55;;;;;;;9.93;5.10;;;1.00;99.90;;;-0.47;100.00;97597.28;4979828;28;20059;-70
2022/01/07 06:54:22;;;;;;;12.82;5.88;;;1.00;99.90;;;-0.47;100.00;97592.16;4985584;28;20086;-70
2022/01/07 06:56:50;;;;;;;16.85;5.03;;;1.00;99.90;;;-0.39;100.00;97591.31;4977691;28;20050;-70
2022/01/07 06:59:18;;;;;;;18.10;5.45;;;1.00;99.90;;;-0.35;100.00;97576.03;4982428;28;20094;-70
2022/01/07 07:01:47;;;;;;;14.30;5.53;;;1.00;99.90;;;-0.44;100.00;97584.50;4975605;28;20129;-70
2022/01/07 07:04:17;;;;;;;14.07;6.00;;;1.00;99.90;;;-0.47;100.00;97559.03;4977298;28;20115;-70
2022/01/07 07:06:45;;;;;;;14.75;5.38;;;0.90;99.90;;;-0.53;100.00;97564.09;4988339;28;20448;-70
2022/01/07 07:09:12;;;;;;;17.33;5.28;;;0.90;99.90;;;-0.45;100.00;97569.22;4974860;28;20272;-70
2022/01/07 07:11:43;;;;;;;13.05;5.18;;;1.00;99.90;;;-0.55;100.00;97578.56;4976890;28;20058;-70
2022/01/07 07:14:14;;;;;;;16.00;5.10;;;1.00;99.90;;;-0.64;100.00;97568.34;4979361;28;20500;-70
2022/01/07 07:16:43;;;;;;;15.38;5.38;;;1.00;99.90;;;-0.54;100.00;97549.69;4977247;28;20062;-70
2022/01/07 07:19:11;;;;;;;12.05;5.43;;;0.80;99.90;;;-0.62;100.00;97561.53;4996505;28;20050;-70
2022/01/07 07:21:38;;;;;;;14.45;4.75;;;0.90;99.90;;;-0.53;100.00;97555.63;4976351;28;20047;-70
2022/01/07 07:24:06;;;;;;;13.32;5.47;;;0.80;99.90;;;-0.54;100.00;97552.22;4978407;28;20073;-71
2022/01/07 07:26:33;;;;;;;20.88;6.57;;;0.80;99.90;;;-0.58;100.00;97553.06;4974234;28;20106;-70
2022/01/07 07:29:01;;;;;;;12.48;4.30;;;0.80;99.90;;;-0.65;100.00;97559.84;4979741;28;20038;-70
2022/01/07 07:31:30;;;;;;;17.45;6.20;;;0.80;99.90;;;-0.65;100.00;97564.09;4975714;28;20115;-70
2022/01/07 07:36:44;;;;;;;17.33;5.28;;;0.80;99.90;;;-0.66;100.00;97565.81;4975627;28;20062;-70
2022/01/07 07:39:14;;;;;;;15.93;6.18;;;0.80;99.90;;;-0.66;100.00;97573.47;4973451;28;20050;-70
2022/01/07 07:41:43;;;;;;;22.13;7.35;;;0.80;99.90;;;-0.63;100.00;97567.50;4979685;28;20050;-70
2022/01/07 07:44:11;;;;;;;23.02;7.40;;;0.90;99.90;;;-0.66;100.00;97567.50;4976322;28;20484;-70
2022/01/07 07:46:40;;;;;;;17.52;7.22;;;0.90;99.90;;;-0.65;100.00;97566.66;4979067;28;20298;-70
2022/01/07 07:49:10;;;;;;;19.42;6.90;;;0.80;99.90;;;-0.70;100.00;97576.84;4975710;28;20460;-70
2022/01/07 07:51:37;;;;;;;19.23;6.10;;;0.80;99.90;;;-0.61;100.00;97559.88;4974745;28;20078;-70
2022/01/07 07:54:07;;;;;;;15.52;6.00;;;0.80;99.90;;;-0.66;100.00;97557.31;4975061;28;20106;-70
2022/01/07 07:56:34;;;;;;;16.52;7.18;;;0.80;99.90;;;-0.73;100.00;97587.03;4973810;28;20046;-70
2022/01/07 07:59:04;;;;;;;21.13;8.23;;;0.90;99.90;;;-0.61;100.00;97563.28;4982779;28;20058;-70
2022/01/07 08:01:32;;;;;;;23.85;8.65;;;0.80;99.90;;;-0.82;100.00;97574.28;4985585;28;20042;-70
2022/01/07 08:04:00;;;;;;;19.38;7.95;;;0.80;99.90;;;-0.76;100.00;97583.63;4975474;28;20043;-70
2022/01/07 08:06:28;;;;;;;17.48;7.25;;;0.80;99.90;;;-0.72;100.00;97557.31;4969700;28;20456;-70
2022/01/07 08:08:55;;;;;;;17.60;8.18;;;0.70;99.90;;;-0.77;100.00;97575.13;4978340;28;20562;-70
2022/01/07 08:11:26;;;;;;;18.75;7.50;;;0.80;99.90;;;-0.70;100.00;97563.25;4981676;28;20396;-70
2022/01/07 08:16:40;;;;;;;18.40;7.72;;;0.80;99.90;;;-0.78;100.00;97590.41;4973365;28;20129;-70
2022/01/07 08:19:07;;;;;;;23.35;10.43;;;0.80;99.90;;;-0.72;100.00;97572.59;4973617;28;20051;-70
2022/01/07 08:21:35;;;;;;;18.85;9.05;;;0.80;99.90;;;-0.72;100.00;97585.34;4989131;28;20051;-70
2022/01/07 08:24:03;;;;;;;17.35;8.13;;;0.80;99.90;;;-0.76;100.00;97583.63;4994435;28;20376;-70
2022/01/07 08:26:30;;;;;;;15.70;7.00;;;0.80;99.90;;;-0.78;100.00;97583.59;4962657;28;20435;-70
2022/01/07 08:29:03;;;;;;;15.70;6.15;;;0.80;99.90;;;-0.72;100.00;97562.41;4971805;28;20522;-70
2022/01/07 08:36:46;;;;;;;17.48;6.82;;;0.70;99.90;;;-0.66;100.00;97562.41;4978478;28;20062;-70
2022/01/07 08:39:13;;;;;;;18.83;6.70;;;0.70;99.90;;;-0.63;100.00;97577.72;4971294;28;20578;-70
2022/01/07 08:41:42;;;;;;;13.25;5.68;;;0.70;99.90;;;-0.64;100.00;97570.88;4975725;28;20122;-70
2022/01/07 08:44:11;;;;;;;18.45;6.25;;;0.70;99.90;;;-0.73;100.00;97581.94;4972759;28;20089;-69
2022/01/07 08:46:39;;;;;;;20.10;7.10;;;0.80;99.90;;;-0.69;100.00;97563.25;4976892;28;20375;-70
2022/01/07 08:49:07;;;;;;;17.75;7.35;;;0.90;99.90;;;-0.55;100.00;97560.69;4985836;28;20050;-70
2022/01/07 08:51:34;;;;;;;17.20;7.78;;;0.90;99.90;;;-0.63;100.00;97562.41;4976147;28;20121;-70
2022/01/07 08:54:03;;;;;;;14.95;6.35;;;0.90;99.90;;;-0.70;100.00;97568.34;4982229;28;20097;-70
2022/01/07 08:56:32;;;;;;;13.23;4.53;;;1.00;99.90;;;-0.62;100.00;97569.19;4977168;28;20129;-70
2022/01/07 08:59:01;;;;;;;22.15;8.18;;;0.90;99.90;;;-0.66;100.00;97567.50;4980379;28;20074;-70
2022/01/07 09:01:29;;;;;;;15.77;6.40;;;0.90;99.90;;;-0.66;100.00;97567.50;4977936;28;20043;-70
2022/01/07 09:03:57;;;;;;;13.82;5.97;;;1.00;99.90;;;-0.59;100.00;97559.03;4979792;28;20042;-70
2022/01/07 09:06:24;;;;;;;7.63;3.78;;;0.90;99.90;;;-0.57;100.00;97569.19;4975461;28;20054;-70
2022/01/07 09:08:51;;;;;;;12.32;5.82;;;1.00;99.90;;;-0.54;100.00;97547.13;4978982;28;20089;-70
2022/01/07 09:11:19;;;;;;;12.70;6.22;;;0.90;99.90;;;-0.55;100.00;97537.75;4985123;28;20061;-70
2022/01/07 09:13:48;;;;;;;16.98;6.22;;;0.90;99.90;;;-0.52;100.00;97544.59;4985324;28;20423;-70
2022/01/07 09:16:17;;;;;;;11.60;4.18;;;0.90;99.90;;;-0.56;100.00;97530.13;4979208;28;20054;-70
2022/01/07 09:18:44;;;;;;;12.30;5.50;;;0.90;99.90;;;-0.59;100.00;97556.47;4981314;28;20123;-70
2022/01/07 09:21:11;;;;;;;9.10;5.43;;;1.00;99.90;;;-0.57;100.00;97551.34;4977927;28;20150;-70
2022/01/07 09:23:41;;;;;;;16.05;5.95;;;0.90;99.90;;;-0.53;100.00;97547.97;4976178;28;20042;-70
2022/01/07 09:26:10;;;;;;;8.07;4.70;;;1.00;99.90;;;-0.53;100.00;97553.06;4976992;28;20431;-70
2022/01/07 09:28:38;;;;;;;11.43;4.70;;;1.00;99.90;;;-0.57;100.00;97543.72;4976732;28;20050;-69
2022/01/07 09:31:06;;;;;;;12.55;4.57;;;1.00;99.90;;;-0.52;100.00;97552.22;4975433;28;20133;-69
2022/01/07 09:33:34;;;;;;;9.82;5.05;;;1.00;99.90;;;-0.46;100.00;97555.66;4991125;28;20062;-69
2022/01/07 09:36:22;;;;;;;10.65;4.63;;;1.00;99.90;;;-0.58;100.00;97557.31;4979108;28;20132;-69
2022/01/07 09:38:51;;;;;;;13.70;5.68;;;1.00;99.90;;;-0.56;100.00;97547.97;4976197;28;20046;-69
2022/01/07 09:41:18;;;;;;;11.63;4.95;;;1.10;99.90;;;-0.55;100.00;97554.75;4975047;28;20063;-69
2022/01/07 09:43:46;;;;;;;12.40;5.25;;;1.20;99.90;;;-0.42;100.00;97553.94;4977913;28;20043;-69
2022/01/07 09:46:18;;;;;;;8.00;4.07;;;1.20;99.90;;;-0.40;100.00;97557.34;4976829;28;20102;-69
2022/01/07 09:48:47;;;;;;;11.82;6.50;;;1.30;99.90;;;-0.35;100.00;97563.28;4980237;28;20054;-69
2022/01/07 09:51:15;;;;;;;14.38;5.78;;;1.30;99.90;;;-0.23;100.00;97542.88;4980554;28;20478;-69
2022/01/07 09:53:43;;;;;;;13.85;4.35;;;1.40;99.90;;;-0.35;100.00;97554.78;4978148;28;20046;-69
2022/01/07 09:56:11;;;;;;;12.20;5.47;;;1.50;99.90;;;-0.38;100.00;97549.69;4975766;28;20054;-70
2022/01/07 09:58:39;;;;;;;11.20;5.30;;;1.40;99.90;;;-0.32;100.00;97535.25;4976175;28;20045;-70
2022/01/07 10:01:09;;;;;;;12.55;5.60;;;1.30;99.90;;;-0.50;100.00;97547.97;4981521;28;20196;-69
2022/01/07 10:03:40;;;;;;;10.27;5.28;;;1.40;99.90;;;-0.36;100.00;97522.50;4989949;28;20074;-69
2022/01/07 10:06:23;;;;;;;10.02;4.30;;;1.40;99.90;;;-0.35;100.00;97549.69;4978635;28;20039;-69
2022/01/07 10:09:10;;;;;;;11.02;4.95;;;1.30;99.90;;;-0.43;100.00;97542.03;4987738;28;20046;-69
2022/01/07 10:11:38;;;;;;;10.70;5.80;;;1.30;99.90;;;-0.46;100.00;97537.78;4993810;28;20062;-70
2022/01/07 10:14:22;;;;;;;11.85;5.65;;;1.30;99.90;;;-0.46;100.00;97522.50;4972879;28;20050;-69
2022/01/07 10:16:56;;;;;;;7.45;3.97;;;1.20;99.90;;;-0.40;100.00;97531.00;4983639;28;20124;-69
2022/01/07 10:19:39;;;;;;;7.57;3.83;;;1.10;99.90;;;-0.43;100.00;97525.03;4976672;28;20078;-69
2022/01/07 10:22:13;;;;;;;13.43;5.38;;;1.20;99.90;;;-0.43;100.00;97530.13;4979108;28;20050;-69
2022/01/07 10:25:03;;;;;;;14.35;6.47;;;1.20;99.90;;;-0.33;100.00;97520.78;4971716;28;20134;-69
2022/01/07 10:27:40;;;;;;;13.43;6.00;;;1.20;99.90;;;-0.26;100.00;97525.00;4980639;28;20042;-69
2022/01/07 10:30:26;;;;;;;8.57;4.72;;;1.20;99.90;;;-0.39;100.00;97519.91;4986667;28;20117;-69